Jasper, MI (49248)

6:57 PM EST on January 21, 2017 (GMT -0500)
(MAC), Jasper | | Change Station
Active Advisory: Dense Fog Advisory

Elev 740 ft 41.80 °N, 84.04 °W | Updated 1 minute ago

Clear
Clear
53.1 °F
Feels Like 53.1 °F
N
0.0
Wind Variable Wind from South
Gusts 0.0 mph

Today
High -- | Low -- °F
--% Chance of Precip.
Yesterday
High -- | Low -- °F
Precip. -- in
Pressure 29.62 in
Visibility 10.0 miles
Clouds Clear
Dew Point 50 °F
Humidity 91%
Rainfall 0.00 in
Snow Depth Not available.
7:57 AM 5:37 PM
Waning Crescent, 31% visible
METAR KADG 212353Z AUTO 18006KT 10SM CLR 10/10 A2961 RMK AO2 SLP031 T01000100 10139 20100 53005
Pressure 29.62 in
Visibility 10.0 miles
Clouds Clear
Dew Point 50 °F
Humidity 91%
Rainfall 0.00 in
Snow Depth Not available.
7:57 AM 5:37 PM
Waning Crescent, 31% visible
METAR KADG 212353Z AUTO 18006KT 10SM CLR 10/10 A2961 RMK AO2 SLP031 T01000100 10139 20100 53005

Get Your Daily Forecast Email!

Thanks for signing up!

Be on the lookout for a verification email in your inbox.

You'll start receiving the daily forecast at 8 AM.

×

10-Day Weather Forecast

Almanac

Astronomy

Jan. 21, 2017 Rise Set
Actual Time
Civil Twilight
Nautical Twilight
Astronomical Twilight
Moon
Length of Visible Light
Length of Day
Tomorrow will be .
, % of the Moon is Illuminated

Today's Extremes

State Highs State Lows

Community

WunderPhotos

Upload Photos

1,962,540 photos uploaded!

WunderBlog® & News

Nearby

Air Quality

  Air Quality AQ Index Pollutant
Not available.

Snow Depth

Station Depth Elevation

Earthquake Activity

City Distance Mag. Time & Date
Minimum magnitude displayed is 2.5.

Coastal Water Temperatures

Place Temperature

Stations

Nearby Weather Stations

Station Location Temp. Windchill Dew Point Humidity Wind Precip. Elev Updated Type
                   

Watches & Warnings

Dense Fog Advisory
Issued: 3:23 PM EST Jan. 21, 2017 – National Weather Service

... Dense fog advisory in effect from 7 PM this evening to 10 am
EST Sunday...

The National Weather Service in Detroit/Pontiac has issued a
dense fog advisory... which is in effect from 7 PM this evening to
10 am EST Sunday.

Hazardous weather...

* fog will redevelop over southeastern Michigan after sunset.

* Widespread dense fog will develop this evening with
   visibilities near zero at times.

* Conditions may improve for short periods of time... but the
   environment will remain favorable for continued fog development
   through sunrise on Sunday.

Impacts...

* hazardous driving conditions in reduced visibilities.

Precautionary/preparedness actions...

A dense fog advisory means visibilities will frequently be
reduced to less than one quarter mile. If driving... slow down...
use your headlights... and leave plenty of distance ahead of you.

* Prepare... plan... and stay informed. Visit
   www.Weather.Gov/DTX/weather_preparedness



Cb